createdAt,value
2018-08-31T00:03:59.834Z,9.8
2018-08-31T00:13:59.442Z,8.1
2018-08-31T00:23:59.230Z,12.5
2018-08-31T00:33:58.906Z,8.4
2018-08-31T00:43:58.577Z,10.7
2018-08-31T00:53:58.214Z,10.7
2018-08-31T01:03:57.844Z,9.2
2018-08-31T01:13:57.492Z,8.5
2018-08-31T01:23:58.167Z,13.4
2018-08-31T01:33:58.104Z,8.5
2018-08-31T01:43:57.690Z,9.4
2018-08-31T01:53:57.369Z,10.5
2018-08-31T02:03:57.048Z,8.9
2018-08-31T02:13:56.928Z,8.3
2018-08-31T02:23:56.545Z,12.2
2018-08-31T02:33:56.175Z,7.9
2018-08-31T02:43:57.134Z,9.4
2018-08-31T02:53:57.098Z,7.7
2018-08-31T03:03:56.746Z,13.3
2018-08-31T03:13:57.077Z,8
2018-08-31T03:23:58.232Z,10
2018-08-31T03:33:58.024Z,11.4
2018-08-31T03:43:57.797Z,7.7
2018-08-31T03:53:57.486Z,11.3
2018-08-31T04:03:57.278Z,9.4
2018-08-31T04:13:57.003Z,11.2
2018-08-31T04:23:56.679Z,10.8
2018-08-31T04:33:56.630Z,10.2
2018-08-31T04:43:57.421Z,9.2
2018-08-31T04:53:58.025Z,13.2
2018-08-31T05:03:57.724Z,13.1
2018-08-31T05:13:57.438Z,13.4
2018-08-31T05:23:57.417Z,8
2018-08-31T05:33:58.168Z,8.4
2018-08-31T05:43:57.888Z,8.2
2018-08-31T05:54:00.699Z,8.3
2018-08-31T06:04:00.308Z,9.7
2018-08-31T06:13:59.953Z,9.6
2018-08-31T06:23:59.719Z,11.3
2018-08-31T06:33:59.991Z,12.5
2018-08-31T06:43:59.799Z,13.8
2018-08-31T06:54:00.433Z,10.4
2018-08-31T07:04:00.392Z,12.7
2018-08-31T07:14:00.853Z,12.3
2018-08-31T07:24:01.178Z,16.4
2018-08-31T07:34:02.816Z,15.6
2018-08-31T07:44:02.925Z,8.8
2018-08-31T07:54:03.311Z,10.1
2018-08-31T08:04:03.049Z,11.5
2018-08-31T08:14:04.119Z,9.3
2018-08-31T08:24:04.377Z,11.3
2018-08-31T08:34:04.043Z,10.8
2018-08-31T08:44:04.558Z,8.1
2018-08-31T08:54:06.889Z,8.6
2018-08-31T09:04:06.655Z,9.5
2018-08-31T09:14:23.453Z,7.7
2018-08-31T09:24:40.274Z,7.1
2018-08-31T09:34:48.773Z,6.5
2018-08-31T09:45:08.295Z,7.4
2018-08-31T09:55:15.003Z,7.6
2018-08-31T10:05:19.099Z,7.5
2018-08-31T10:15:46.933Z,9.4
2018-08-31T10:25:53.010Z,13.9
2018-08-31T10:35:53.204Z,11.5
2018-08-31T10:45:59.015Z,13.6
2018-08-31T10:56:02.467Z,15.3
2018-08-31T11:06:13.227Z,14.3
2018-08-31T11:16:24.845Z,13.1
2018-08-31T11:26:26.951Z,15.7
2018-08-31T11:36:27.747Z,12
2018-08-31T11:46:31.461Z,10.9
2018-08-31T11:56:38.608Z,12.5
2018-08-31T12:06:40.033Z,13.3
2018-08-31T12:16:40.007Z,11.4
2018-08-31T12:26:42.812Z,9.8
2018-08-31T12:36:43.250Z,13.5
2018-08-31T12:46:43.481Z,9.4
2018-08-31T12:56:44.730Z,11.6
2018-08-31T13:06:46.661Z,8.4
2018-08-31T13:16:46.383Z,10.5
2018-08-31T13:26:47.053Z,10.6
2018-08-31T13:36:54.487Z,11.4
2018-08-31T13:46:56.309Z,13.7
2018-08-31T13:56:56.411Z,10.2
2018-08-31T14:07:00.395Z,11.7
2018-08-31T14:17:00.347Z,10.5
2018-08-31T14:27:03.972Z,10.2
2018-08-31T14:37:05.666Z,8.8
2018-08-31T14:47:06.195Z,12.1
2018-08-31T14:57:11.040Z,13.7
2018-08-31T15:07:12.363Z,10.1
2018-08-31T15:17:12.580Z,10.5
2018-08-31T15:27:13.832Z,10.5
2018-08-31T15:37:14.940Z,8.1
2018-08-31T15:47:15.653Z,10.6
2018-08-31T15:57:19.425Z,12.3
2018-08-31T16:07:19.205Z,12.2
2018-08-31T16:17:21.128Z,9.4
2018-08-31T16:27:21.577Z,11.1
2018-08-31T16:37:21.823Z,10.1
2018-08-31T16:47:22.021Z,12.5
2018-08-31T16:57:22.374Z,10.6
2018-08-31T17:07:22.129Z,12.5
2018-08-31T17:17:23.628Z,13.1
2018-08-31T17:27:23.460Z,12.6
2018-08-31T17:37:24.835Z,9.8
2018-08-31T17:47:25.037Z,12.8
2018-08-31T17:57:25.594Z,12.5
2018-08-31T18:07:27.122Z,16.5
2018-08-31T18:17:33.089Z,15.1
2018-08-31T18:27:34.711Z,16.2
2018-08-31T18:37:40.784Z,15
2018-08-31T18:47:42.928Z,14
2018-08-31T18:57:49.807Z,17.5
2018-08-31T19:07:50.348Z,17.7
2018-08-31T19:17:50.265Z,15.9
2018-08-31T19:27:50.304Z,19.8
2018-08-31T19:37:52.399Z,15.6
2018-08-31T19:47:52.194Z,15.8
2018-08-31T19:57:52.047Z,21
2018-08-31T20:07:52.416Z,18.1
2018-08-31T20:17:56.623Z,17.5
2018-08-31T20:27:56.380Z,18.9
2018-08-31T20:37:56.144Z,18.2
2018-08-31T20:47:56.858Z,19.2
2018-08-31T20:57:56.477Z,21.4
2018-08-31T21:07:56.975Z,24
2018-08-31T21:17:59.232Z,21.1
2018-08-31T21:28:01.980Z,15.6
2018-08-31T21:38:02.729Z,13.9
2018-08-31T21:48:03.265Z,14.7
2018-08-31T21:58:05.361Z,16.4
2018-08-31T22:08:05.679Z,14.1
2018-08-31T22:18:06.891Z,14.5
2018-08-31T22:28:07.394Z,14.6
2018-08-31T22:38:07.447Z,15.1
2018-08-31T22:48:08.477Z,21.3
2018-08-31T22:58:09.304Z,17.5
2018-08-31T23:08:12.479Z,18.9
2018-08-31T23:18:13.966Z,15.1
2018-08-31T23:28:19.551Z,13.7
2018-08-31T23:38:19.643Z,18.6
2018-08-31T23:48:24.928Z,15.3
2018-08-31T23:58:29.942Z,14
